sensor_id;sensor_type;location;lat;lon;timestamp;temperature;humidity
53962;DHT22;39868;53.398;6.564;2022-11-20T00:01:31;4.60;73.80
53962;DHT22;39868;53.398;6.564;2022-11-20T00:03:59;4.60;73.80
53962;DHT22;39868;53.398;6.564;2022-11-20T00:06:28;4.60;73.80
53962;DHT22;39868;53.398;6.564;2022-11-20T00:08:57;4.60;73.70
53962;DHT22;39868;53.398;6.564;2022-11-20T00:11:27;4.60;73.80
53962;DHT22;39868;53.398;6.564;2022-11-20T00:13:57;4.60;73.80
53962;DHT22;39868;53.398;6.564;2022-11-20T00:16:27;4.60;73.80
53962;DHT22;39868;53.398;6.564;2022-11-20T00:18:54;4.60;73.80
53962;DHT22;39868;53.398;6.564;2022-11-20T00:21:24;4.60;73.80
53962;DHT22;39868;53.398;6.564;2022-11-20T00:23:54;4.60;73.80
53962;DHT22;39868;53.398;6.564;2022-11-20T00:26:23;4.50;73.70
53962;DHT22;39868;53.398;6.564;2022-11-20T00:28:54;4.50;73.80
53962;DHT22;39868;53.398;6.564;2022-11-20T00:31:22;4.50;73.80
53962;DHT22;39868;53.398;6.564;2022-11-20T00:33:50;4.50;73.80
53962;DHT22;39868;53.398;6.564;2022-11-20T00:36:20;4.50;73.80
53962;DHT22;39868;53.398;6.564;2022-11-20T00:38:54;4.50;73.80
53962;DHT22;39868;53.398;6.564;2022-11-20T00:41:23;4.50;73.70
53962;DHT22;39868;53.398;6.564;2022-11-20T00:43:54;4.50;73.70
53962;DHT22;39868;53.398;6.564;2022-11-20T00:46:24;4.50;73.80
53962;DHT22;39868;53.398;6.564;2022-11-20T00:48:52;4.50;73.80
53962;DHT22;39868;53.398;6.564;2022-11-20T00:51:22;4.50;73.80
53962;DHT22;39868;53.398;6.564;2022-11-20T00:53:50;4.50;73.80
53962;DHT22;39868;53.398;6.564;2022-11-20T00:56:19;4.50;73.90
53962;DHT22;39868;53.398;6.564;2022-11-20T00:58:48;4.50;73.90
53962;DHT22;39868;53.398;6.564;2022-11-20T01:01:21;4.50;73.80
53962;DHT22;39868;53.398;6.564;2022-11-20T01:03:53;4.50;73.80
53962;DHT22;39868;53.398;6.564;2022-11-20T01:06:24;4.50;73.80
53962;DHT22;39868;53.398;6.564;2022-11-20T01:08:54;4.50;73.80
53962;DHT22;39868;53.398;6.564;2022-11-20T01:11:27;4.50;73.80
53962;DHT22;39868;53.398;6.564;2022-11-20T01:13:56;4.50;73.80
53962;DHT22;39868;53.398;6.564;2022-11-20T01:16:29;4.50;73.80
53962;DHT22;39868;53.398;6.564;2022-11-20T01:18:59;4.50;73.80
53962;DHT22;39868;53.398;6.564;2022-11-20T01:21:30;4.60;73.90
53962;DHT22;39868;53.398;6.564;2022-11-20T01:23:58;4.60;73.80
53962;DHT22;39868;53.398;6.564;2022-11-20T01:26:28;4.60;73.80
53962;DHT22;39868;53.398;6.564;2022-11-20T01:28:57;4.60;73.70
53962;DHT22;39868;53.398;6.564;2022-11-20T01:31:33;4.60;73.80
53962;DHT22;39868;53.398;6.564;2022-11-20T01:34:04;4.60;73.70
53962;DHT22;39868;53.398;6.564;2022-11-20T01:36:33;4.60;73.70
53962;DHT22;39868;53.398;6.564;2022-11-20T01:39:05;4.60;73.60
53962;DHT22;39868;53.398;6.564;2022-11-20T01:41:33;4.60;73.50
53962;DHT22;39868;53.398;6.564;2022-11-20T01:44:22;4.60;73.50
53962;DHT22;39868;53.398;6.564;2022-11-20T01:47:09;4.60;73.40
53962;DHT22;39868;53.398;6.564;2022-11-20T01:49:49;4.60;73.40
53962;DHT22;39868;53.398;6.564;2022-11-20T01:52:21;4.60;73.40
53962;DHT22;39868;53.398;6.564;2022-11-20T01:54:59;4.60;73.50
53962;DHT22;39868;53.398;6.564;2022-11-20T01:57:29;4.60;73.50
53962;DHT22;39868;53.398;6.564;2022-11-20T02:00:05;4.60;73.60
53962;DHT22;39868;53.398;6.564;2022-11-20T02:02:46;4.60;73.50
53962;DHT22;39868;53.398;6.564;2022-11-20T02:07:46;4.70;73.40
53962;DHT22;39868;53.398;6.564;2022-11-20T02:10:14;4.60;73.40
53962;DHT22;39868;53.398;6.564;2022-11-20T02:12:42;4.70;73.40
53962;DHT22;39868;53.398;6.564;2022-11-20T02:15:28;4.60;73.40
53962;DHT22;39868;53.398;6.564;2022-11-20T02:17:56;4.60;73.40
53962;DHT22;39868;53.398;6.564;2022-11-20T02:20:24;4.60;73.40
53962;DHT22;39868;53.398;6.564;2022-11-20T02:25:31;4.60;73.40
53962;DHT22;39868;53.398;6.564;2022-11-20T02:28:00;4.60;74.00
53962;DHT22;39868;53.398;6.564;2022-11-20T02:30:27;4.60;73.40
53962;DHT22;39868;53.398;6.564;2022-11-20T02:32:55;4.60;73.40
53962;DHT22;39868;53.398;6.564;2022-11-20T02:37:53;4.60;73.30
53962;DHT22;39868;53.398;6.564;2022-11-20T02:40:22;4.60;73.20
53962;DHT22;39868;53.398;6.564;2022-11-20T02:42:54;4.60;73.20
53962;DHT22;39868;53.398;6.564;2022-11-20T02:45:22;4.60;73.20
53962;DHT22;39868;53.398;6.564;2022-11-20T02:47:51;4.70;73.20
53962;DHT22;39868;53.398;6.564;2022-11-20T02:50:19;4.60;73.20
53962;DHT22;39868;53.398;6.564;2022-11-20T02:52:46;4.70;73.20
53962;DHT22;39868;53.398;6.564;2022-11-20T02:55:14;4.70;73.20
53962;DHT22;39868;53.398;6.564;2022-11-20T02:57:42;4.70;73.20
53962;DHT22;39868;53.398;6.564;2022-11-20T03:00:10;4.70;73.10
53962;DHT22;39868;53.398;6.564;2022-11-20T03:02:37;4.70;73.10
53962;DHT22;39868;53.398;6.564;2022-11-20T03:05:05;4.70;73.60
53962;DHT22;39868;53.398;6.564;2022-11-20T03:07:32;4.70;73.10
53962;DHT22;39868;53.398;6.564;2022-11-20T03:10:00;4.70;73.00
53962;DHT22;39868;53.398;6.564;2022-11-20T03:12:28;4.70;73.10
53962;DHT22;39868;53.398;6.564;2022-11-20T03:14:55;4.80;73.10
53962;DHT22;39868;53.398;6.564;2022-11-20T03:17:23;4.80;73.10
53962;DHT22;39868;53.398;6.564;2022-11-20T03:19:50;4.80;73.10
53962;DHT22;39868;53.398;6.564;2022-11-20T03:22:18;4.80;73.10
53962;DHT22;39868;53.398;6.564;2022-11-20T03:24:45;4.80;73.10
53962;DHT22;39868;53.398;6.564;2022-11-20T03:27:13;4.80;73.10
53962;DHT22;39868;53.398;6.564;2022-11-20T03:29:40;4.80;73.10
53962;DHT22;39868;53.398;6.564;2022-11-20T03:32:08;4.80;73.10
53962;DHT22;39868;53.398;6.564;2022-11-20T03:34:35;4.80;73.00
53962;DHT22;39868;53.398;6.564;2022-11-20T03:37:03;4.80;73.00
53962;DHT22;39868;53.398;6.564;2022-11-20T03:39:30;4.80;73.00
53962;DHT22;39868;53.398;6.564;2022-11-20T03:41:58;4.80;73.00
53962;DHT22;39868;53.398;6.564;2022-11-20T03:44:26;4.80;73.00
53962;DHT22;39868;53.398;6.564;2022-11-20T03:46:53;4.80;73.10
53962;DHT22;39868;53.398;6.564;2022-11-20T03:49:21;4.80;73.20
53962;DHT22;39868;53.398;6.564;2022-11-20T03:51:49;4.80;73.30
53962;DHT22;39868;53.398;6.564;2022-11-20T03:54:16;4.80;73.30
53962;DHT22;39868;53.398;6.564;2022-11-20T03:56:44;4.80;73.20
53962;DHT22;39868;53.398;6.564;2022-11-20T03:59:11;4.80;73.20
53962;DHT22;39868;53.398;6.564;2022-11-20T04:01:39;4.80;73.20
53962;DHT22;39868;53.398;6.564;2022-11-20T04:04:12;4.80;73.10
53962;DHT22;39868;53.398;6.564;2022-11-20T04:06:40;4.90;73.20
53962;DHT22;39868;53.398;6.564;2022-11-20T04:09:08;4.80;73.00
53962;DHT22;39868;53.398;6.564;2022-11-20T04:11:37;4.90;73.10
53962;DHT22;39868;53.398;6.564;2022-11-20T04:14:11;4.90;73.10
53962;DHT22;39868;53.398;6.564;2022-11-20T04:16:40;4.90;73.00
53962;DHT22;39868;53.398;6.564;2022-11-20T04:19:10;4.90;73.00
53962;DHT22;39868;53.398;6.564;2022-11-20T04:21:38;4.90;73.00
53962;DHT22;39868;53.398;6.564;2022-11-20T04:24:06;4.90;73.00
53962;DHT22;39868;53.398;6.564;2022-11-20T04:26:34;4.90;72.90
53962;DHT22;39868;53.398;6.564;2022-11-20T04:29:02;4.80;72.90
53962;DHT22;39868;53.398;6.564;2022-11-20T04:31:32;4.80;72.90
53962;DHT22;39868;53.398;6.564;2022-11-20T04:34:02;4.80;72.90
53962;DHT22;39868;53.398;6.564;2022-11-20T04:36:30;4.80;72.80
53962;DHT22;39868;53.398;6.564;2022-11-20T04:39:01;4.80;72.90
53962;DHT22;39868;53.398;6.564;2022-11-20T04:41:31;4.80;72.90
53962;DHT22;39868;53.398;6.564;2022-11-20T04:44:00;4.80;72.90
53962;DHT22;39868;53.398;6.564;2022-11-20T04:46:35;4.80;72.90
53962;DHT22;39868;53.398;6.564;2022-11-20T04:49:02;4.80;72.90
53962;DHT22;39868;53.398;6.564;2022-11-20T04:51:30;4.80;72.90
53962;DHT22;39868;53.398;6.564;2022-11-20T04:53:58;4.80;72.80
53962;DHT22;39868;53.398;6.564;2022-11-20T04:56:26;4.80;72.80
53962;DHT22;39868;53.398;6.564;2022-11-20T04:58:53;4.80;72.80
53962;DHT22;39868;53.398;6.564;2022-11-20T05:01:22;4.80;72.80
53962;DHT22;39868;53.398;6.564;2022-11-20T05:03:51;4.80;72.80
53962;DHT22;39868;53.398;6.564;2022-11-20T05:06:20;4.80;72.80
53962;DHT22;39868;53.398;6.564;2022-11-20T05:08:48;4.80;72.80
53962;DHT22;39868;53.398;6.564;2022-11-20T05:11:18;4.80;72.80
53962;DHT22;39868;53.398;6.564;2022-11-20T05:13:47;4.80;72.80
53962;DHT22;39868;53.398;6.564;2022-11-20T05:16:20;4.80;72.80
53962;DHT22;39868;53.398;6.564;2022-11-20T05:18:50;4.80;72.80
53962;DHT22;39868;53.398;6.564;2022-11-20T05:21:18;4.80;72.90
53962;DHT22;39868;53.398;6.564;2022-11-20T05:23:46;4.80;72.80
53962;DHT22;39868;53.398;6.564;2022-11-20T05:26:19;4.80;72.80
53962;DHT22;39868;53.398;6.564;2022-11-20T05:28:49;4.80;72.70
53962;DHT22;39868;53.398;6.564;2022-11-20T05:31:19;4.80;72.80
53962;DHT22;39868;53.398;6.564;2022-11-20T05:33:53;4.80;72.70
53962;DHT22;39868;53.398;6.564;2022-11-20T05:36:21;4.70;72.70
53962;DHT22;39868;53.398;6.564;2022-11-20T05:38:49;4.70;72.70
53962;DHT22;39868;53.398;6.564;2022-11-20T05:41:20;4.70;72.80
53962;DHT22;39868;53.398;6.564;2022-11-20T05:43:48;4.70;72.80
53962;DHT22;39868;53.398;6.564;2022-11-20T05:46:19;4.70;72.80
53962;DHT22;39868;53.398;6.564;2022-11-20T05:48:54;4.70;72.90
53962;DHT22;39868;53.398;6.564;2022-11-20T05:51:23;4.70;72.90
53962;DHT22;39868;53.398;6.564;2022-11-20T05:53:50;4.70;73.00
53962;DHT22;39868;53.398;6.564;2022-11-20T05:56:20;4.70;73.00
53962;DHT22;39868;53.398;6.564;2022-11-20T05:58:48;4.70;73.10
53962;DHT22;39868;53.398;6.564;2022-11-20T06:01:22;4.60;73.10
53962;DHT22;39868;53.398;6.564;2022-11-20T06:03:50;4.70;73.20
53962;DHT22;39868;53.398;6.564;2022-11-20T06:06:19;4.70;73.20
53962;DHT22;39868;53.398;6.564;2022-11-20T06:08:46;4.70;73.30
53962;DHT22;39868;53.398;6.564;2022-11-20T06:11:15;4.70;73.30
53962;DHT22;39868;53.398;6.564;2022-11-20T06:13:43;4.70;73.30
53962;DHT22;39868;53.398;6.564;2022-11-20T06:16:12;4.70;73.30
53962;DHT22;39868;53.398;6.564;2022-11-20T06:18:41;4.70;73.40
53962;DHT22;39868;53.398;6.564;2022-11-20T06:21:15;4.70;73.50
53962;DHT22;39868;53.398;6.564;2022-11-20T06:23:43;4.70;73.40
53962;DHT22;39868;53.398;6.564;2022-11-20T06:26:17;4.70;73.50
53962;DHT22;39868;53.398;6.564;2022-11-20T06:28:46;4.70;73.50
53962;DHT22;39868;53.398;6.564;2022-11-20T06:31:15;4.70;73.60
53962;DHT22;39868;53.398;6.564;2022-11-20T06:33:44;4.70;73.60
53962;DHT22;39868;53.398;6.564;2022-11-20T06:36:13;4.70;73.60
53962;DHT22;39868;53.398;6.564;2022-11-20T06:38:41;4.70;73.60
53962;DHT22;39868;53.398;6.564;2022-11-20T06:41:17;4.70;73.60
53962;DHT22;39868;53.398;6.564;2022-11-20T06:43:46;4.70;73.60
53962;DHT22;39868;53.398;6.564;2022-11-20T06:46:15;4.70;73.60
53962;DHT22;39868;53.398;6.564;2022-11-20T06:48:45;4.70;73.70
53962;DHT22;39868;53.398;6.564;2022-11-20T06:51:13;4.70;73.70
53962;DHT22;39868;53.398;6.564;2022-11-20T06:53:41;4.70;73.80
53962;DHT22;39868;53.398;6.564;2022-11-20T06:56:08;4.80;73.90
53962;DHT22;39868;53.398;6.564;2022-11-20T06:58:36;4.80;73.90
53962;DHT22;39868;53.398;6.564;2022-11-20T07:01:06;4.80;73.90
53962;DHT22;39868;53.398;6.564;2022-11-20T07:03:34;4.80;74.00
53962;DHT22;39868;53.398;6.564;2022-11-20T07:06:02;4.80;74.00
53962;DHT22;39868;53.398;6.564;2022-11-20T07:08:30;4.80;74.00
53962;DHT22;39868;53.398;6.564;2022-11-20T07:11:03;4.90;74.10
53962;DHT22;39868;53.398;6.564;2022-11-20T07:13:31;4.90;74.10
53962;DHT22;39868;53.398;6.564;2022-11-20T07:16:02;4.90;74.20
53962;DHT22;39868;53.398;6.564;2022-11-20T07:18:30;4.90;74.30
53962;DHT22;39868;53.398;6.564;2022-11-20T07:21:03;4.90;74.30
53962;DHT22;39868;53.398;6.564;2022-11-20T07:23:31;4.90;74.30
53962;DHT22;39868;53.398;6.564;2022-11-20T07:26:05;4.90;74.30
53962;DHT22;39868;53.398;6.564;2022-11-20T07:28:35;5.00;74.40
53962;DHT22;39868;53.398;6.564;2022-11-20T07:31:03;5.00;74.30
53962;DHT22;39868;53.398;6.564;2022-11-20T07:33:32;5.00;74.30
53962;DHT22;39868;53.398;6.564;2022-11-20T07:36:01;4.90;74.20
53962;DHT22;39868;53.398;6.564;2022-11-20T07:38:29;5.00;74.20
53962;DHT22;39868;53.398;6.564;2022-11-20T07:40:57;4.90;74.30
53962;DHT22;39868;53.398;6.564;2022-11-20T07:43:25;4.90;74.30
53962;DHT22;39868;53.398;6.564;2022-11-20T07:45:55;4.90;74.30
53962;DHT22;39868;53.398;6.564;2022-11-20T07:48:24;4.90;74.30
53962;DHT22;39868;53.398;6.564;2022-11-20T07:50:55;4.90;74.40
53962;DHT22;39868;53.398;6.564;2022-11-20T07:53:23;4.90;74.50
53962;DHT22;39868;53.398;6.564;2022-11-20T07:55:51;4.90;74.50
53962;DHT22;39868;53.398;6.564;2022-11-20T07:58:20;4.90;74.60
53962;DHT22;39868;53.398;6.564;2022-11-20T08:00:47;4.90;74.60
53962;DHT22;39868;53.398;6.564;2022-11-20T08:03:15;4.90;74.70
53962;DHT22;39868;53.398;6.564;2022-11-20T08:05:50;4.90;74.80
53962;DHT22;39868;53.398;6.564;2022-11-20T08:08:18;5.00;75.00
53962;DHT22;39868;53.398;6.564;2022-11-20T08:10:45;4.90;75.00
53962;DHT22;39868;53.398;6.564;2022-11-20T08:13:13;5.00;75.10
53962;DHT22;39868;53.398;6.564;2022-11-20T08:15:58;5.00;75.20
53962;DHT22;39868;53.398;6.564;2022-11-20T08:18:26;5.00;75.70
53962;DHT22;39868;53.398;6.564;2022-11-20T08:21:05;5.00;75.20
53962;DHT22;39868;53.398;6.564;2022-11-20T08:23:33;5.00;75.80
53962;DHT22;39868;53.398;6.564;2022-11-20T08:26:00;5.00;75.20
53962;DHT22;39868;53.398;6.564;2022-11-20T08:28:28;5.00;75.30
53962;DHT22;39868;53.398;6.564;2022-11-20T08:31:00;5.00;75.20
53962;DHT22;39868;53.398;6.564;2022-11-20T08:33:28;5.10;75.30
53962;DHT22;39868;53.398;6.564;2022-11-20T08:36:00;5.10;75.30
53962;DHT22;39868;53.398;6.564;2022-11-20T08:38:28;5.10;75.30
53962;DHT22;39868;53.398;6.564;2022-11-20T08:40:57;5.10;75.30
53962;DHT22;39868;53.398;6.564;2022-11-20T08:43:43;5.10;75.30
53962;DHT22;39868;53.398;6.564;2022-11-20T08:46:11;5.20;75.30
53962;DHT22;39868;53.398;6.564;2022-11-20T08:48:38;5.20;75.30
53962;DHT22;39868;53.398;6.564;2022-11-20T08:51:06;5.20;75.20
53962;DHT22;39868;53.398;6.564;2022-11-20T08:53:33;5.20;75.20
53962;DHT22;39868;53.398;6.564;2022-11-20T08:56:01;5.30;75.20
53962;DHT22;39868;53.398;6.564;2022-11-20T08:58:28;5.30;75.20
53962;DHT22;39868;53.398;6.564;2022-11-20T09:00:57;5.30;75.20
53962;DHT22;39868;53.398;6.564;2022-11-20T09:03:24;5.40;75.20
53962;DHT22;39868;53.398;6.564;2022-11-20T09:06:03;5.40;75.20
53962;DHT22;39868;53.398;6.564;2022-11-20T09:08:32;5.40;75.20
53962;DHT22;39868;53.398;6.564;2022-11-20T09:11:00;5.40;75.10
53962;DHT22;39868;53.398;6.564;2022-11-20T09:13:28;5.50;75.20
53962;DHT22;39868;53.398;6.564;2022-11-20T09:16:07;5.50;75.20
53962;DHT22;39868;53.398;6.564;2022-11-20T09:18:35;5.60;75.10
53962;DHT22;39868;53.398;6.564;2022-11-20T09:21:12;5.60;75.10
53962;DHT22;39868;53.398;6.564;2022-11-20T09:23:40;5.60;75.10
53962;DHT22;39868;53.398;6.564;2022-11-20T09:26:11;5.60;75.10
53962;DHT22;39868;53.398;6.564;2022-11-20T09:28:39;5.70;75.10
53962;DHT22;39868;53.398;6.564;2022-11-20T09:31:22;5.70;75.00
53962;DHT22;39868;53.398;6.564;2022-11-20T09:33:50;5.70;74.90
53962;DHT22;39868;53.398;6.564;2022-11-20T09:36:18;5.80;74.90
53962;DHT22;39868;53.398;6.564;2022-11-20T09:38:46;5.80;74.80
53962;DHT22;39868;53.398;6.564;2022-11-20T09:44:19;5.90;74.70
53962;DHT22;39868;53.398;6.564;2022-11-20T09:47:02;5.90;74.50
53962;DHT22;39868;53.398;6.564;2022-11-20T09:55:11;6.00;74.10
53962;DHT22;39868;53.398;6.564;2022-11-20T09:57:44;6.00;74.00
53962;DHT22;39868;53.398;6.564;2022-11-20T10:00:13;6.00;73.90
53962;DHT22;39868;53.398;6.564;2022-11-20T10:03:01;6.00;74.10
53962;DHT22;39868;53.398;6.564;2022-11-20T10:05:53;6.00;74.10
53962;DHT22;39868;53.398;6.564;2022-11-20T10:08:39;6.00;74.10
53962;DHT22;39868;53.398;6.564;2022-11-20T10:11:35;6.10;74.20
53962;DHT22;39868;53.398;6.564;2022-11-20T10:30:20;6.20;73.90
53962;DHT22;39868;53.398;6.564;2022-11-20T10:32:59;6.30;73.90
53962;DHT22;39868;53.398;6.564;2022-11-20T10:35:49;6.30;73.90
53962;DHT22;39868;53.398;6.564;2022-11-20T10:41:03;6.30;73.70
53962;DHT22;39868;53.398;6.564;2022-11-20T10:44:05;6.40;73.70
53962;DHT22;39868;53.398;6.564;2022-11-20T10:46:44;6.40;73.60
53962;DHT22;39868;53.398;6.564;2022-11-20T10:49:17;6.40;73.50
53962;DHT22;39868;53.398;6.564;2022-11-20T11:07:41;6.50;73.30
53962;DHT22;39868;53.398;6.564;2022-11-20T11:10:19;6.50;73.30
53962;DHT22;39868;53.398;6.564;2022-11-20T11:12:48;6.40;73.00
53962;DHT22;39868;53.398;6.564;2022-11-20T11:15:28;6.40;73.10
53962;DHT22;39868;53.398;6.564;2022-11-20T11:17:57;6.40;73.00
53962;DHT22;39868;53.398;6.564;2022-11-20T11:20:26;6.40;73.00
53962;DHT22;39868;53.398;6.564;2022-11-20T11:22:58;6.40;73.00
53962;DHT22;39868;53.398;6.564;2022-11-20T11:25:30;6.40;73.10
53962;DHT22;39868;53.398;6.564;2022-11-20T11:28:19;6.40;73.20
53962;DHT22;39868;53.398;6.564;2022-11-20T11:30:47;6.50;73.30
53962;DHT22;39868;53.398;6.564;2022-11-20T11:33:31;6.50;73.40
53962;DHT22;39868;53.398;6.564;2022-11-20T11:36:03;6.60;73.60
53962;DHT22;39868;53.398;6.564;2022-11-20T11:38:40;6.70;73.70
53962;DHT22;39868;53.398;6.564;2022-11-20T11:41:16;6.80;73.90
53962;DHT22;39868;53.398;6.564;2022-11-20T11:43:56;6.90;74.00
53962;DHT22;39868;53.398;6.564;2022-11-20T11:46:53;7.00;74.10
53962;DHT22;39868;53.398;6.564;2022-11-20T11:49:22;7.20;74.10
53962;DHT22;39868;53.398;6.564;2022-11-20T11:52:08;7.30;74.00
53962;DHT22;39868;53.398;6.564;2022-11-20T11:55:01;7.30;73.80
53962;DHT22;39868;53.398;6.564;2022-11-20T12:00:19;7.50;73.50
53962;DHT22;39868;53.398;6.564;2022-11-20T12:05:28;7.50;73.00
53962;DHT22;39868;53.398;6.564;2022-11-20T12:11:18;7.50;72.30
53962;DHT22;39868;53.398;6.564;2022-11-20T12:13:55;7.40;72.10
53962;DHT22;39868;53.398;6.564;2022-11-20T12:16:24;7.40;71.90
53962;DHT22;39868;53.398;6.564;2022-11-20T12:18:52;7.30;71.90
53962;DHT22;39868;53.398;6.564;2022-11-20T12:21:24;7.30;71.90
53962;DHT22;39868;53.398;6.564;2022-11-20T12:30:07;7.20;71.60
53962;DHT22;39868;53.398;6.564;2022-11-20T12:32:50;7.10;71.60
53962;DHT22;39868;53.398;6.564;2022-11-20T12:35:52;7.00;71.30
53962;DHT22;39868;53.398;6.564;2022-11-20T12:41:43;7.00;71.50
53962;DHT22;39868;53.398;6.564;2022-11-20T12:56:25;6.80;72.00
53962;DHT22;39868;53.398;6.564;2022-11-20T12:59:31;6.80;71.70
53962;DHT22;39868;53.398;6.564;2022-11-20T13:07:30;6.80;71.60
53962;DHT22;39868;53.398;6.564;2022-11-20T13:10:00;6.80;71.50
53962;DHT22;39868;53.398;6.564;2022-11-20T13:12:30;6.80;71.60
53962;DHT22;39868;53.398;6.564;2022-11-20T13:15:40;6.80;71.60
53962;DHT22;39868;53.398;6.564;2022-11-20T13:18:11;6.80;71.60
53962;DHT22;39868;53.398;6.564;2022-11-20T13:20:44;6.80;71.90
53962;DHT22;39868;53.398;6.564;2022-11-20T13:23:22;6.90;72.00
53962;DHT22;39868;53.398;6.564;2022-11-20T13:25:49;6.90;71.90
53962;DHT22;39868;53.398;6.564;2022-11-20T13:30:53;7.00;72.00
53962;DHT22;39868;53.398;6.564;2022-11-20T13:33:49;7.00;72.00
53962;DHT22;39868;53.398;6.564;2022-11-20T13:36:26;7.00;72.10
53962;DHT22;39868;53.398;6.564;2022-11-20T13:38:55;7.00;72.00
53962;DHT22;39868;53.398;6.564;2022-11-20T13:41:36;7.10;72.10
53962;DHT22;39868;53.398;6.564;2022-11-20T13:44:25;7.10;71.90
53962;DHT22;39868;53.398;6.564;2022-11-20T13:46:53;7.20;71.80
53962;DHT22;39868;53.398;6.564;2022-11-20T13:49:47;7.20;71.80
53962;DHT22;39868;53.398;6.564;2022-11-20T14:03:47;7.20;71.00
53962;DHT22;39868;53.398;6.564;2022-11-20T14:06:40;7.20;70.90
53962;DHT22;39868;53.398;6.564;2022-11-20T14:09:49;7.20;70.80
53962;DHT22;39868;53.398;6.564;2022-11-20T14:12:18;7.20;71.00
53962;DHT22;39868;53.398;6.564;2022-11-20T14:14:54;7.20;71.00
53962;DHT22;39868;53.398;6.564;2022-11-20T14:17:33;7.20;71.00
53962;DHT22;39868;53.398;6.564;2022-11-20T14:20:04;7.20;71.00
53962;DHT22;39868;53.398;6.564;2022-11-20T14:22:33;7.20;71.00
53962;DHT22;39868;53.398;6.564;2022-11-20T14:27:58;7.10;71.00
53962;DHT22;39868;53.398;6.564;2022-11-20T14:30:29;7.00;71.00
53962;DHT22;39868;53.398;6.564;2022-11-20T14:33:03;7.00;71.00
53962;DHT22;39868;53.398;6.564;2022-11-20T14:35:35;6.90;70.90
53962;DHT22;39868;53.398;6.564;2022-11-20T14:38:04;6.90;71.30
53962;DHT22;39868;53.398;6.564;2022-11-20T14:40:36;6.80;70.90
53962;DHT22;39868;53.398;6.564;2022-11-20T14:43:28;6.70;70.90
53962;DHT22;39868;53.398;6.564;2022-11-20T14:46:04;6.70;71.00
53962;DHT22;39868;53.398;6.564;2022-11-20T14:48:49;6.60;71.00
53962;DHT22;39868;53.398;6.564;2022-11-20T14:51:37;6.60;71.10
53962;DHT22;39868;53.398;6.564;2022-11-20T14:56:37;6.40;71.20
53962;DHT22;39868;53.398;6.564;2022-11-20T14:59:05;6.40;71.30
53962;DHT22;39868;53.398;6.564;2022-11-20T15:01:34;6.30;71.30
53962;DHT22;39868;53.398;6.564;2022-11-20T15:04:10;6.30;71.40
53962;DHT22;39868;53.398;6.564;2022-11-20T15:06:53;6.30;71.50
53962;DHT22;39868;53.398;6.564;2022-11-20T15:09:21;6.30;71.60
53962;DHT22;39868;53.398;6.564;2022-11-20T15:11:57;6.20;71.60
53962;DHT22;39868;53.398;6.564;2022-11-20T15:14:27;6.20;71.60
53962;DHT22;39868;53.398;6.564;2022-11-20T15:16:56;6.10;71.70
53962;DHT22;39868;53.398;6.564;2022-11-20T15:19:25;6.10;71.70
53962;DHT22;39868;53.398;6.564;2022-11-20T15:21:53;6.00;71.70
53962;DHT22;39868;53.398;6.564;2022-11-20T15:24:21;6.00;71.70
53962;DHT22;39868;53.398;6.564;2022-11-20T15:26:49;6.00;71.80
53962;DHT22;39868;53.398;6.564;2022-11-20T15:29:17;5.90;71.70
53962;DHT22;39868;53.398;6.564;2022-11-20T15:31:48;5.90;71.70
53962;DHT22;39868;53.398;6.564;2022-11-20T15:34:16;5.90;71.70
53962;DHT22;39868;53.398;6.564;2022-11-20T15:36:44;5.90;71.70
53962;DHT22;39868;53.398;6.564;2022-11-20T15:39:11;5.80;71.70
53962;DHT22;39868;53.398;6.564;2022-11-20T15:41:39;5.80;71.70
53962;DHT22;39868;53.398;6.564;2022-11-20T15:44:07;5.70;71.70
53962;DHT22;39868;53.398;6.564;2022-11-20T15:46:37;5.70;71.70
53962;DHT22;39868;53.398;6.564;2022-11-20T15:49:12;5.70;71.80
53962;DHT22;39868;53.398;6.564;2022-11-20T15:51:42;5.60;71.80
53962;DHT22;39868;53.398;6.564;2022-11-20T15:54:15;5.60;71.80
53962;DHT22;39868;53.398;6.564;2022-11-20T15:56:48;5.60;71.70
53962;DHT22;39868;53.398;6.564;2022-11-20T15:59:16;5.60;71.70
53962;DHT22;39868;53.398;6.564;2022-11-20T16:01:44;5.50;71.70
53962;DHT22;39868;53.398;6.564;2022-11-20T16:04:16;5.50;71.70
53962;DHT22;39868;53.398;6.564;2022-11-20T16:06:43;5.50;71.60
53962;DHT22;39868;53.398;6.564;2022-11-20T16:09:11;5.40;71.60
53962;DHT22;39868;53.398;6.564;2022-11-20T16:11:39;5.40;71.70
53962;DHT22;39868;53.398;6.564;2022-11-20T16:14:09;5.40;71.80
53962;DHT22;39868;53.398;6.564;2022-11-20T16:16:57;5.40;71.90
53962;DHT22;39868;53.398;6.564;2022-11-20T16:19:24;5.40;72.00
53962;DHT22;39868;53.398;6.564;2022-11-20T16:21:52;5.40;72.10
53962;DHT22;39868;53.398;6.564;2022-11-20T16:24:24;5.30;72.00
53962;DHT22;39868;53.398;6.564;2022-11-20T16:26:53;5.40;72.10
53962;DHT22;39868;53.398;6.564;2022-11-20T16:29:21;5.30;72.10
53962;DHT22;39868;53.398;6.564;2022-11-20T16:31:49;5.30;72.10
53962;DHT22;39868;53.398;6.564;2022-11-20T16:34:17;5.30;72.20
53962;DHT22;39868;53.398;6.564;2022-11-20T16:36:45;5.30;72.20
53962;DHT22;39868;53.398;6.564;2022-11-20T16:39:13;5.30;72.20
53962;DHT22;39868;53.398;6.564;2022-11-20T16:41:47;5.30;72.10
53962;DHT22;39868;53.398;6.564;2022-11-20T16:44:15;5.30;72.10
53962;DHT22;39868;53.398;6.564;2022-11-20T16:46:42;5.30;72.10
53962;DHT22;39868;53.398;6.564;2022-11-20T16:49:12;5.30;72.10
53962;DHT22;39868;53.398;6.564;2022-11-20T16:51:40;5.30;72.10
53962;DHT22;39868;53.398;6.564;2022-11-20T16:54:10;5.20;72.00
53962;DHT22;39868;53.398;6.564;2022-11-20T16:56:43;5.20;72.00
53962;DHT22;39868;53.398;6.564;2022-11-20T16:59:14;5.20;72.00
53962;DHT22;39868;53.398;6.564;2022-11-20T17:01:41;5.20;72.00
53962;DHT22;39868;53.398;6.564;2022-11-20T17:04:10;5.20;72.00
53962;DHT22;39868;53.398;6.564;2022-11-20T17:06:40;5.20;72.00
53962;DHT22;39868;53.398;6.564;2022-11-20T17:09:11;5.20;72.00
53962;DHT22;39868;53.398;6.564;2022-11-20T17:11:39;5.20;72.10
53962;DHT22;39868;53.398;6.564;2022-11-20T17:14:07;5.20;72.10
53962;DHT22;39868;53.398;6.564;2022-11-20T17:16:35;5.10;72.00
53962;DHT22;39868;53.398;6.564;2022-11-20T17:19:04;5.10;72.00
53962;DHT22;39868;53.398;6.564;2022-11-20T17:21:32;5.10;72.00
53962;DHT22;39868;53.398;6.564;2022-11-20T17:24:04;5.10;72.00
53962;DHT22;39868;53.398;6.564;2022-11-20T17:26:34;5.10;72.00
53962;DHT22;39868;53.398;6.564;2022-11-20T17:29:06;5.10;72.00
53962;DHT22;39868;53.398;6.564;2022-11-20T17:31:36;5.10;72.00
53962;DHT22;39868;53.398;6.564;2022-11-20T17:34:10;5.10;72.00
53962;DHT22;39868;53.398;6.564;2022-11-20T17:36:38;5.10;72.00
53962;DHT22;39868;53.398;6.564;2022-11-20T17:39:12;5.00;72.00
53962;DHT22;39868;53.398;6.564;2022-11-20T17:41:40;5.10;72.10
53962;DHT22;39868;53.398;6.564;2022-11-20T17:44:09;5.10;72.10
53962;DHT22;39868;53.398;6.564;2022-11-20T17:46:37;5.10;72.10
53962;DHT22;39868;53.398;6.564;2022-11-20T17:49:05;5.10;72.10
53962;DHT22;39868;53.398;6.564;2022-11-20T17:51:33;5.00;72.10
53962;DHT22;39868;53.398;6.564;2022-11-20T17:54:03;5.00;72.10
53962;DHT22;39868;53.398;6.564;2022-11-20T17:56:34;5.00;72.10
53962;DHT22;39868;53.398;6.564;2022-11-20T17:59:21;5.00;72.20